Time;durP1;ratioP1;P1;durP2;ratioP2;P2;SDS_P1;SDS_P2;PMS_P1;PMS_P2;Temp;Humidity;BMP_temperature;BMP_pressure;BME280_temperature;BME280_humidity;BME280_pressure;Samples;Min_cycle;Max_cycle;Signal;HPM_P1;HPM_P2
2022/03/12 00:01:18;0.00;0.00;0.62;0.00;0.00;0.62;1.87;1.40;;;24.60;18.80;;;;;;2266263;61;20356;-64
2022/03/12 00:04:06;0.00;0.00;0.62;0.00;0.00;0.62;1.83;1.40;;;24.60;18.80;;;;;;2264966;61;20360;-61
2022/03/12 00:06:50;0.00;0.00;0.62;0.00;0.00;0.62;1.87;1.40;;;24.60;18.90;;;;;;2266107;61;20365;-62
2022/03/12 00:09:35;0.00;0.00;0.62;0.00;0.00;0.62;1.90;1.50;;;24.60;18.90;;;;;;2266184;61;20787;-63
2022/03/12 00:12:21;0.00;0.00;0.62;0.00;0.00;0.62;1.90;1.30;;;24.50;18.90;;;;;;2265220;61;20361;-66
2022/03/12 00:15:12;0.00;0.00;0.62;0.00;0.00;0.62;1.60;1.27;;;24.50;18.90;;;;;;2266034;61;20389;-62
2022/03/12 00:17:57;0.00;0.00;0.62;0.00;0.00;0.62;2.20;1.40;;;24.60;19.00;;;;;;2265374;61;20618;-60
2022/03/12 00:20:45;0.00;0.00;0.62;0.00;0.00;0.62;2.00;1.40;;;24.50;18.90;;;;;;2265431;61;20384;-61
2022/03/12 00:23:30;0.00;0.00;0.62;0.00;0.00;0.62;2.50;1.60;;;24.50;18.90;;;;;;2265687;61;20365;-63
2022/03/12 00:26:16;0.00;0.00;0.62;0.00;0.00;0.62;1.50;1.10;;;24.50;19.00;;;;;;2264890;61;20592;-63
2022/03/12 00:29:01;0.00;0.00;0.62;0.00;0.00;0.62;1.57;1.13;;;24.50;19.00;;;;;;2266091;61;20352;-65
2022/03/12 00:31:47;0.00;0.00;0.62;0.00;0.00;0.62;1.60;1.07;;;24.50;19.00;;;;;;2266012;61;20404;-64
2022/03/12 00:34:32;0.00;0.00;0.62;0.00;0.00;0.62;2.20;1.40;;;24.50;19.00;;;;;;2264777;61;20420;-61
2022/03/12 00:37:19;0.00;0.00;0.62;0.00;0.00;0.62;2.10;1.30;;;24.50;19.00;;;;;;2265731;61;20779;-65
2022/03/12 00:40:06;0.00;0.00;0.62;0.00;0.00;0.62;1.47;0.90;;;24.50;19.10;;;;;;2265259;61;20361;-65
2022/03/12 00:42:51;0.00;0.00;0.62;0.00;0.00;0.62;1.70;1.30;;;24.50;19.10;;;;;;2265773;61;20404;-65
2022/03/12 00:45:36;0.00;0.00;0.62;0.00;0.00;0.62;1.80;1.23;;;24.50;19.10;;;;;;2265999;61;20380;-63
2022/03/12 00:48:21;0.00;0.00;0.62;0.00;0.00;0.62;1.90;1.47;;;24.50;19.10;;;;;;2264453;61;20392;-65
2022/03/12 00:51:09;0.00;0.00;0.62;0.00;0.00;0.62;1.70;1.00;;;24.50;19.20;;;;;;2266029;61;20396;-61
2022/03/12 00:53:56;0.00;0.00;0.62;0.00;0.00;0.62;2.90;1.47;;;24.50;19.20;;;;;;2265452;61;20388;-63
2022/03/12 00:56:41;0.00;0.00;0.62;0.00;0.00;0.62;1.93;1.40;;;24.40;19.20;;;;;;2265320;61;20501;-63
2022/03/12 00:59:26;0.00;0.00;0.62;0.00;0.00;0.62;1.70;1.10;;;24.40;19.10;;;;;;2265916;61;20516;-60
2022/03/12 01:02:15;0.00;0.00;0.62;0.00;0.00;0.62;2.37;1.50;;;24.40;19.10;;;;;;2265165;61;20442;-61
2022/03/12 01:05:00;0.00;0.00;0.62;0.00;0.00;0.62;1.60;1.07;;;24.40;19.20;;;;;;2265616;61;20376;-63
2022/03/12 01:07:45;0.00;0.00;0.62;0.00;0.00;0.62;2.73;1.23;;;24.40;19.10;;;;;;2266004;61;20358;-64
2022/03/12 01:10:31;0.00;0.00;0.62;0.00;0.00;0.62;1.90;1.43;;;24.40;19.20;;;;;;2264844;61;20365;-66
2022/03/12 01:13:16;0.00;0.00;0.62;0.00;0.00;0.62;1.87;1.30;;;24.40;19.10;;;;;;2266674;61;20399;-63
2022/03/12 01:16:02;0.00;0.00;0.62;0.00;0.00;0.62;1.90;1.60;;;24.40;19.00;;;;;;2266365;61;20741;-62
2022/03/12 01:18:47;0.00;0.00;0.62;0.00;0.00;0.62;3.00;1.80;;;24.30;18.80;;;;;;2265427;61;20385;-63
2022/03/12 01:21:31;0.00;0.00;0.62;0.00;0.00;0.62;3.00;2.40;;;24.40;18.80;;;;;;2266242;61;20360;-59
2022/03/12 01:24:16;0.00;0.00;0.62;0.00;0.00;0.62;2.90;2.50;;;24.30;18.50;;;;;;2265107;61;20361;-60
2022/03/12 01:27:03;0.00;0.00;0.62;0.00;0.00;0.62;3.50;3.00;;;24.30;18.40;;;;;;2266170;61;20725;-63
2022/03/12 01:29:48;0.00;0.00;0.62;0.00;0.00;0.62;3.70;3.10;;;24.20;18.10;;;;;;2266351;61;20364;-62
2022/03/12 01:32:33;0.00;0.00;0.62;0.00;0.00;0.62;5.47;3.80;;;24.20;18.10;;;;;;2264912;61;20369;-64
2022/03/12 01:35:18;0.00;0.00;0.62;0.00;0.00;0.62;3.40;2.80;;;24.20;17.90;;;;;;2265917;61;20606;-62
2022/03/12 01:38:04;0.00;0.00;0.62;0.00;0.00;0.62;4.10;3.40;;;24.10;17.80;;;;;;2265837;61;20392;-61
2022/03/12 01:40:49;0.00;0.00;0.62;0.00;0.00;0.62;3.13;2.60;;;24.10;17.80;;;;;;2264980;61;20361;-66
2022/03/12 01:43:37;0.00;0.00;0.62;0.00;0.00;0.62;4.60;3.50;;;24.00;17.70;;;;;;2265721;61;20385;-65
2022/03/12 01:46:29;0.00;0.00;0.62;0.00;0.00;0.62;3.80;3.40;;;24.00;17.60;;;;;;2265062;61;20385;-61
2022/03/12 01:49:18;0.00;0.00;0.62;0.00;0.00;0.62;3.93;2.90;;;24.00;17.60;;;;;;2265593;61;20369;-62
2022/03/12 01:52:04;0.00;0.00;0.62;0.00;0.00;0.62;3.57;3.00;;;24.00;17.60;;;;;;2265743;61;20385;-62
2022/03/12 01:54:51;0.00;0.00;0.62;0.00;0.00;0.62;3.57;3.27;;;23.90;17.50;;;;;;2264765;61;20381;-63
2022/03/12 01:57:36;0.00;0.00;0.62;0.00;0.00;0.62;4.47;3.83;;;23.90;17.50;;;;;;2265746;61;20387;-64
2022/03/12 02:00:26;0.00;0.00;0.62;0.00;0.00;0.62;3.77;3.37;;;23.80;17.40;;;;;;2265747;61;20385;-65
2022/03/12 02:03:13;0.00;0.00;0.62;0.00;0.00;0.62;4.33;3.77;;;23.80;17.40;;;;;;2265095;61;20403;-64
2022/03/12 02:05:59;0.00;0.00;0.62;0.00;0.00;0.62;5.97;3.97;;;23.70;17.30;;;;;;2265656;61;20476;-62
2022/03/12 02:08:48;0.00;0.00;0.62;0.00;0.00;0.62;4.07;3.70;;;23.70;17.30;;;;;;2265054;61;20349;-62
2022/03/12 02:11:33;0.00;0.00;0.62;0.00;0.00;0.62;5.63;3.80;;;23.70;17.30;;;;;;2265585;61;20369;-65
2022/03/12 02:14:23;0.00;0.00;0.62;0.00;0.00;0.62;4.27;3.83;;;23.60;17.10;;;;;;2265485;61;20375;-64
2022/03/12 02:17:12;0.00;0.00;0.62;0.00;0.00;0.62;4.67;4.20;;;23.60;17.20;;;;;;2261608;61;20408;-61
2022/03/12 02:19:56;0.00;0.00;0.62;0.00;0.00;0.62;5.13;4.37;;;23.60;17.20;;;;;;2265722;61;20365;-62
2022/03/12 02:22:41;0.00;0.00;0.62;0.00;0.00;0.62;4.30;3.90;;;23.50;17.10;;;;;;2265736;61;20576;-62
2022/03/12 02:25:29;0.00;0.00;0.62;0.00;0.00;0.62;4.97;3.83;;;23.50;17.10;;;;;;2264970;61;20380;-59
2022/03/12 02:28:16;0.00;0.00;0.62;0.00;0.00;0.62;4.33;3.70;;;23.50;17.10;;;;;;2265697;61;20424;-62
2022/03/12 02:31:01;0.00;0.00;0.62;0.00;0.00;0.62;4.30;3.90;;;23.40;17.00;;;;;;2264949;61;20601;-63
2022/03/12 02:33:47;0.00;0.00;0.62;0.00;0.00;0.62;4.83;3.60;;;23.40;17.00;;;;;;2265177;61;20376;-63
2022/03/12 02:36:32;0.00;0.00;0.62;0.00;0.00;0.62;3.47;3.17;;;23.30;16.90;;;;;;2265772;61;20810;-64
2022/03/12 02:39:17;0.00;0.00;0.62;0.00;0.00;0.62;4.00;3.37;;;23.30;17.00;;;;;;2264408;61;20417;-60
2022/03/12 02:42:06;0.00;0.00;0.62;0.00;0.00;0.62;6.27;4.60;;;23.30;17.00;;;;;;2265720;61;20353;-63
2022/03/12 02:44:52;0.00;0.00;0.62;0.00;0.00;0.62;4.67;4.17;;;23.20;16.90;;;;;;2265613;61;20617;-65
2022/03/12 02:47:43;0.00;0.00;0.62;0.00;0.00;0.62;4.13;3.73;;;23.20;16.80;;;;;;2264879;61;20462;-61
2022/03/12 02:50:28;0.00;0.00;0.62;0.00;0.00;0.62;5.13;3.63;;;23.20;16.90;;;;;;2265764;61;20396;-63
2022/03/12 02:53:12;0.00;0.00;0.62;0.00;0.00;0.62;4.20;3.53;;;23.10;16.80;;;;;;2264763;61;20384;-64
2022/03/12 02:55:58;0.00;0.00;0.62;0.00;0.00;0.62;5.13;3.70;;;23.10;16.80;;;;;;2265357;61;20407;-61
2022/03/12 02:58:44;0.00;0.00;0.62;0.00;0.00;0.62;3.73;3.43;;;23.10;17.30;;;;;;2266367;61;20465;-64
2022/03/12 03:01:29;0.00;0.00;0.62;0.00;0.00;0.62;4.50;4.00;;;23.00;16.70;;;;;;2265262;61;20783;-64
2022/03/12 03:04:14;0.00;0.00;0.62;0.00;0.00;0.62;5.10;4.50;;;23.00;16.70;;;;;;2266424;61;20425;-64
2022/03/12 03:07:00;0.00;0.00;0.62;0.00;0.00;0.62;5.23;4.47;;;23.00;16.70;;;;;;2266389;61;20398;-64
2022/03/12 03:09:45;0.00;0.00;0.62;0.00;0.00;0.62;3.93;3.63;;;22.90;16.60;;;;;;2265479;61;20361;-61
2022/03/12 03:12:31;0.00;0.00;0.62;0.00;0.00;0.62;4.07;3.67;;;22.90;16.60;;;;;;2265996;61;20369;-62
2022/03/12 03:15:18;0.00;0.00;0.62;0.00;0.00;0.62;5.07;4.10;;;22.90;16.60;;;;;;2265510;61;20856;-63
2022/03/12 03:18:10;0.00;0.00;0.62;0.00;0.00;0.62;6.87;4.97;;;22.90;16.60;;;;;;2266079;61;20396;-61
2022/03/12 03:20:56;0.00;0.00;0.62;0.00;0.00;0.62;4.53;3.87;;;22.80;16.40;;;;;;2266329;61;20620;-65
2022/03/12 03:23:46;0.00;0.00;0.62;0.00;0.00;0.62;5.13;4.53;;;22.80;16.40;;;;;;2265063;61;20615;-63
2022/03/12 03:26:56;0.00;0.00;0.62;0.00;0.00;0.62;3.97;3.60;;;22.70;16.40;;;;;;2263246;61;20787;-62
2022/03/12 03:29:41;0.00;0.00;0.62;0.00;0.00;0.62;4.83;4.00;;;22.70;16.40;;;;;;2265780;61;20360;-63
2022/03/12 03:32:26;0.00;0.00;0.62;0.00;0.00;0.62;4.00;3.60;;;22.60;16.30;;;;;;2265918;61;20361;-60
2022/03/12 03:35:11;0.00;0.00;0.62;0.00;0.00;0.62;4.63;3.90;;;22.60;16.30;;;;;;2266149;61;20572;-62
2022/03/12 03:37:56;0.00;0.00;0.62;0.00;0.00;0.62;3.83;3.33;;;22.60;16.30;;;;;;2265349;61;20389;-64
2022/03/12 03:40:43;0.00;0.00;0.62;0.00;0.00;0.62;4.33;3.93;;;22.50;16.20;;;;;;2266088;61;20450;-62
2022/03/12 03:43:28;0.00;0.00;0.62;0.00;0.00;0.62;4.13;3.60;;;22.50;16.20;;;;;;2266089;61;20376;-62
2022/03/12 03:46:17;0.00;0.00;0.62;0.00;0.00;0.62;5.07;4.00;;;22.40;16.20;;;;;;2265125;61;20455;-64
2022/03/12 03:49:05;0.00;0.00;0.62;0.00;0.00;0.62;3.93;3.53;;;22.40;16.10;;;;;;2265774;61;20365;-63
2022/03/12 03:51:49;0.00;0.00;0.62;0.00;0.00;0.62;5.80;4.23;;;22.40;16.20;;;;;;2266033;61;20713;-61
2022/03/12 03:54:34;0.00;0.00;0.62;0.00;0.00;0.62;4.70;3.73;;;22.30;16.10;;;;;;2265679;61;20784;-62
2022/03/12 03:57:19;0.00;0.00;0.62;0.00;0.00;0.62;4.23;3.73;;;22.30;16.10;;;;;;2265679;61;20397;-65
2022/03/12 04:00:05;0.00;0.00;0.62;0.00;0.00;0.62;3.93;3.40;;;22.30;16.10;;;;;;2265140;61;20593;-65
2022/03/12 04:03:04;0.00;0.00;0.62;0.00;0.00;0.62;3.90;3.20;;;22.20;16.10;;;;;;2266176;61;20620;-62
2022/03/12 04:05:51;0.00;0.00;0.62;0.00;0.00;0.62;4.33;3.50;;;22.20;16.10;;;;;;2266179;61;20760;-62
2022/03/12 04:08:35;0.00;0.00;0.62;0.00;0.00;0.62;4.37;3.87;;;22.20;16.10;;;;;;2265095;61;20365;-65
2022/03/12 04:11:22;0.00;0.00;0.62;0.00;0.00;0.62;3.90;3.40;;;22.20;16.10;;;;;;2266108;61;20384;-66
2022/03/12 04:14:07;0.00;0.00;0.62;0.00;0.00;0.62;4.10;3.57;;;22.10;16.10;;;;;;2265509;61;20376;-63
2022/03/12 04:16:51;0.00;0.00;0.62;0.00;0.00;0.62;4.17;3.77;;;22.10;16.10;;;;;;2265838;61;20368;-63
2022/03/12 04:19:37;0.00;0.00;0.62;0.00;0.00;0.62;3.97;3.40;;;22.10;16.10;;;;;;2262904;61;20389;-63
2022/03/12 04:22:24;0.00;0.00;0.62;0.00;0.00;0.62;4.33;3.80;;;22.10;16.10;;;;;;2265441;61;20415;-66
2022/03/12 04:25:11;0.00;0.00;0.62;0.00;0.00;0.62;6.50;3.97;;;22.10;16.20;;;;;;2266141;61;20385;-61
2022/03/12 04:27:58;0.00;0.00;0.62;0.00;0.00;0.62;4.47;3.80;;;22.10;16.10;;;;;;2266116;61;20338;-63
2022/03/12 04:30:42;0.00;0.00;0.62;0.00;0.00;0.62;4.33;3.93;;;22.00;16.00;;;;;;2265115;61;20393;-63
2022/03/12 04:33:29;0.00;0.00;0.62;0.00;0.00;0.62;4.47;3.90;;;22.00;16.00;;;;;;2265853;61;20423;-64
2022/03/12 04:36:14;0.00;0.00;0.62;0.00;0.00;0.62;5.93;4.20;;;22.00;16.00;;;;;;2265685;61;20384;-64
2022/03/12 04:39:00;0.00;0.00;0.62;0.00;0.00;0.62;4.77;3.73;;;22.00;16.00;;;;;;2265608;61;20405;-64
2022/03/12 04:41:46;0.00;0.00;0.62;0.00;0.00;0.62;5.87;4.20;;;22.00;16.10;;;;;;2266108;61;20444;-63
2022/03/12 04:44:31;0.00;0.00;0.62;0.00;0.00;0.62;4.50;3.93;;;22.00;16.10;;;;;;2265132;61;20417;-64
2022/03/12 04:47:19;0.00;0.00;0.62;0.00;0.00;0.62;5.57;4.10;;;21.90;16.00;;;;;;2265951;61;20369;-62
2022/03/12 04:50:05;0.00;0.00;0.62;0.00;0.00;0.62;4.47;3.67;;;21.90;16.00;;;;;;2266110;61;20597;-65
2022/03/12 04:52:53;0.00;0.00;0.62;0.00;0.00;0.62;4.30;3.90;;;21.90;16.00;;;;;;2264826;61;20392;-63
2022/03/12 04:55:40;0.00;0.00;0.62;0.00;0.00;0.62;3.23;2.93;;;21.90;16.00;;;;;;2265882;61;20435;-63
2022/03/12 04:58:25;0.00;0.00;0.62;0.00;0.00;0.62;4.10;3.37;;;21.80;16.00;;;;;;2265631;61;20397;-64
2022/03/12 05:01:09;0.00;0.00;0.62;0.00;0.00;0.62;4.77;4.27;;;21.80;16.00;;;;;;2265588;61;20415;-61
2022/03/12 05:03:54;0.00;0.00;0.62;0.00;0.00;0.62;3.97;3.57;;;21.80;16.00;;;;;;2265941;61;20364;-62
2022/03/12 05:06:39;0.00;0.00;0.62;0.00;0.00;0.62;3.40;3.10;;;21.80;16.00;;;;;;2265425;61;20392;-63
2022/03/12 05:09:23;0.00;0.00;0.62;0.00;0.00;0.62;4.57;3.70;;;21.80;16.00;;;;;;2265866;61;20739;-62
2022/03/12 05:12:10;0.00;0.00;0.62;0.00;0.00;0.62;4.00;3.50;;;21.70;15.90;;;;;;2265917;61;20369;-63
2022/03/12 05:14:55;0.00;0.00;0.62;0.00;0.00;0.62;3.53;3.00;;;21.70;15.90;;;;;;2264623;61;20416;-64
2022/03/12 05:17:43;0.00;0.00;0.62;0.00;0.00;0.62;3.93;3.53;;;21.70;15.90;;;;;;2265864;61;20368;-64
2022/03/12 05:20:28;0.00;0.00;0.62;0.00;0.00;0.62;3.97;3.47;;;21.70;15.90;;;;;;2265797;61;20393;-62
2022/03/12 05:23:16;0.00;0.00;0.62;0.00;0.00;0.62;4.60;3.90;;;21.60;15.80;;;;;;2265168;61;20364;-62
2022/03/12 05:26:00;0.00;0.00;0.62;0.00;0.00;0.62;5.07;3.60;;;21.60;15.80;;;;;;2265817;61;20377;-63
2022/03/12 05:28:46;0.00;0.00;0.62;0.00;0.00;0.62;3.70;3.30;;;21.60;15.80;;;;;;2265117;61;20437;-64
2022/03/12 05:31:31;0.00;0.00;0.62;0.00;0.00;0.62;3.90;3.50;;;21.60;15.80;;;;;;2265337;61;20360;-63
2022/03/12 05:34:17;0.00;0.00;0.62;0.00;0.00;0.62;3.70;3.17;;;21.50;15.70;;;;;;2265766;61;20369;-65
2022/03/12 05:37:03;0.00;0.00;0.62;0.00;0.00;0.62;4.03;3.63;;;21.50;15.70;;;;;;2264809;61;20372;-62
2022/03/12 05:39:51;0.00;0.00;0.62;0.00;0.00;0.62;3.87;3.47;;;21.50;15.70;;;;;;2265936;61;20617;-62
2022/03/12 05:42:37;0.00;0.00;0.62;0.00;0.00;0.62;4.03;3.33;;;21.50;15.70;;;;;;2265448;61;20709;-63
2022/03/12 05:45:24;0.00;0.00;0.62;0.00;0.00;0.62;4.67;3.40;;;21.40;15.60;;;;;;2265340;61;20391;-61
2022/03/12 05:48:09;0.00;0.00;0.62;0.00;0.00;0.62;3.70;3.30;;;21.40;15.60;;;;;;2265979;61;20519;-63
2022/03/12 05:50:54;0.00;0.00;0.62;0.00;0.00;0.62;4.10;3.70;;;21.40;15.60;;;;;;2264987;61;20361;-65
2022/03/12 05:53:39;0.00;0.00;0.62;0.00;0.00;0.62;3.67;3.10;;;21.40;15.60;;;;;;2265427;61;20402;-63
2022/03/12 05:56:23;0.00;0.00;0.62;0.00;0.00;0.62;3.93;3.20;;;21.40;15.70;;;;;;2265701;61;20392;-60
2022/03/12 05:59:11;0.00;0.00;0.62;0.00;0.00;0.62;4.03;3.20;;;21.40;15.70;;;;;;2264240;61;20679;-63
2022/03/12 06:01:57;0.00;0.00;0.62;0.00;0.00;0.62;4.73;3.50;;;21.30;15.60;;;;;;2265929;61;20365;-63
2022/03/12 06:04:41;0.00;0.00;0.62;0.00;0.00;0.62;3.53;2.90;;;21.30;15.60;;;;;;2265554;61;20401;-63
2022/03/12 06:07:30;0.00;0.00;0.62;0.00;0.00;0.62;4.20;3.67;;;21.30;15.60;;;;;;2265118;61;20357;-61
2022/03/12 06:10:17;0.00;0.00;0.62;0.00;0.00;0.62;3.50;2.80;;;21.30;15.60;;;;;;2262625;61;20353;-64
2022/03/12 06:13:06;0.00;0.00;0.62;0.00;0.00;0.62;3.93;3.53;;;21.30;15.60;;;;;;2265162;61;20416;-63
2022/03/12 06:16:00;0.00;0.00;0.62;0.00;0.00;0.62;3.73;3.37;;;21.30;15.60;;;;;;2265748;61;20419;-61
2022/03/12 06:18:46;0.00;0.00;0.62;0.00;0.00;0.62;3.90;3.10;;;21.20;15.60;;;;;;2265694;61;20431;-63
2022/03/12 06:21:31;0.00;0.00;0.62;0.00;0.00;0.62;3.67;3.20;;;21.20;15.50;;;;;;2264360;61;20361;-63
2022/03/12 06:24:16;0.00;0.00;0.62;0.00;0.00;0.62;4.00;3.40;;;21.20;15.50;;;;;;2265631;61;20384;-62
2022/03/12 06:27:00;0.00;0.00;0.62;0.00;0.00;0.62;3.47;2.90;;;21.20;15.50;;;;;;2265748;61;20411;-65
2022/03/12 06:29:46;0.00;0.00;0.62;0.00;0.00;0.62;3.50;3.00;;;21.20;15.50;;;;;;2265347;61;20376;-61
2022/03/12 06:32:31;0.00;0.00;0.62;0.00;0.00;0.62;5.10;4.07;;;21.10;15.50;;;;;;2266029;61;20412;-65
2022/03/12 06:35:18;0.00;0.00;0.62;0.00;0.00;0.62;3.73;3.23;;;21.10;15.50;;;;;;2265185;61;20427;-65
2022/03/12 06:38:02;0.00;0.00;0.62;0.00;0.00;0.62;3.50;3.10;;;21.10;15.40;;;;;;2266138;61;20371;-61
2022/03/12 06:40:47;0.00;0.00;0.62;0.00;0.00;0.62;3.90;3.47;;;21.00;15.30;;;;;;2266380;61;20365;-64
2022/03/12 06:43:32;0.00;0.00;0.62;0.00;0.00;0.62;4.03;3.37;;;21.00;15.20;;;;;;2264906;61;20353;-64
2022/03/12 06:46:19;0.00;0.00;0.62;0.00;0.00;0.62;4.20;3.23;;;21.00;15.20;;;;;;2266424;61;20412;-62
2022/03/12 06:49:04;0.00;0.00;0.62;0.00;0.00;0.62;4.30;3.57;;;20.90;15.20;;;;;;2266072;61;20360;-61
2022/03/12 06:51:50;0.00;0.00;0.62;0.00;0.00;0.62;3.80;3.40;;;20.90;15.20;;;;;;2265702;61;20350;-61
2022/03/12 06:54:35;0.00;0.00;0.62;0.00;0.00;0.62;3.53;3.23;;;20.90;15.20;;;;;;2266126;61;20611;-61
2022/03/12 06:57:20;0.00;0.00;0.62;0.00;0.00;0.62;3.70;3.17;;;20.80;15.20;;;;;;2265576;61;20414;-62
2022/03/12 07:00:12;0.00;0.00;0.62;0.00;0.00;0.62;3.37;3.07;;;20.80;15.30;;;;;;2266020;61;20687;-65
2022/03/12 07:02:58;0.00;0.00;0.62;0.00;0.00;0.62;3.67;3.30;;;20.80;15.30;;;;;;2266486;61;20381;-62
2022/03/12 07:05:43;0.00;0.00;0.62;0.00;0.00;0.62;3.10;2.70;;;20.80;15.30;;;;;;2265239;61;20381;-64
2022/03/12 07:08:29;0.00;0.00;0.62;0.00;0.00;0.62;4.07;3.63;;;20.80;15.30;;;;;;2266371;61;20364;-62
2022/03/12 07:11:13;0.00;0.00;0.62;0.00;0.00;0.62;4.30;3.53;;;20.70;15.20;;;;;;2266444;61;20808;-61
2022/03/12 07:13:58;0.00;0.00;0.62;0.00;0.00;0.62;3.73;2.97;;;20.70;15.20;;;;;;2265258;61;20396;-63
2022/03/12 07:16:42;0.00;0.00;0.62;0.00;0.00;0.62;3.20;2.70;;;20.70;15.20;;;;;;2265951;61;20407;-61
2022/03/12 07:19:27;0.00;0.00;0.62;0.00;0.00;0.62;4.37;3.40;;;20.70;15.20;;;;;;2265488;61;20416;-61
2022/03/12 07:22:12;0.00;0.00;0.62;0.00;0.00;0.62;3.90;3.13;;;20.70;15.30;;;;;;2266026;61;20725;-62
2022/03/12 07:24:58;0.00;0.00;0.62;0.00;0.00;0.62;3.90;2.90;;;20.70;15.30;;;;;;2266156;61;20384;-61
2022/03/12 07:27:45;0.00;0.00;0.62;0.00;0.00;0.62;2.87;2.57;;;20.70;15.30;;;;;;2265151;61;20619;-61
2022/03/12 07:30:30;0.00;0.00;0.62;0.00;0.00;0.62;3.40;2.87;;;20.70;15.30;;;;;;2266306;61;20717;-64
2022/03/12 07:33:16;0.00;0.00;0.62;0.00;0.00;0.62;3.47;2.93;;;20.70;15.20;;;;;;2266121;61;20396;-61
2022/03/12 07:36:00;0.00;0.00;0.62;0.00;0.00;0.62;3.73;3.07;;;20.70;15.30;;;;;;2265160;61;20411;-63
2022/03/12 07:38:45;0.00;0.00;0.62;0.00;0.00;0.62;3.37;3.07;;;20.60;15.10;;;;;;2266366;61;20396;-62
2022/03/12 07:41:31;0.00;0.00;0.62;0.00;0.00;0.62;3.90;2.93;;;20.60;15.10;;;;;;2265306;61;20422;-63
2022/03/12 07:44:17;0.00;0.00;0.62;0.00;0.00;0.62;3.70;3.10;;;20.60;15.10;;;;;;2265755;61;20451;-62
2022/03/12 07:47:02;0.00;0.00;0.62;0.00;0.00;0.62;4.50;3.10;;;20.60;15.10;;;;;;2266285;61;20411;-64
2022/03/12 07:49:47;0.00;0.00;0.62;0.00;0.00;0.62;4.40;3.63;;;20.60;15.10;;;;;;2264771;61;20361;-63
2022/03/12 07:52:32;0.00;0.00;0.62;0.00;0.00;0.62;4.13;3.07;;;20.60;15.10;;;;;;2266276;61;20370;-62
2022/03/12 07:55:17;0.00;0.00;0.62;0.00;0.00;0.62;2.97;2.40;;;20.60;15.10;;;;;;2264903;61;20536;-62
2022/03/12 07:58:03;0.00;0.00;0.62;0.00;0.00;0.62;3.80;3.40;;;20.50;15.10;;;;;;2260918;61;20370;-60
2022/03/12 08:00:48;0.00;0.00;0.62;0.00;0.00;0.62;3.90;3.30;;;20.50;15.20;;;;;;2266280;61;20376;-64
2022/03/12 08:03:35;0.00;0.00;0.62;0.00;0.00;0.62;3.87;3.00;;;20.50;15.20;;;;;;2265390;61;20587;-63
2022/03/12 08:06:20;0.00;0.00;0.62;0.00;0.00;0.62;3.20;2.80;;;20.50;15.20;;;;;;2265771;61;20464;-59
2022/03/12 08:09:05;0.00;0.00;0.62;0.00;0.00;0.62;5.17;2.70;;;20.50;15.30;;;;;;2266319;61;20357;-61
2022/03/12 08:11:50;0.00;0.00;0.62;0.00;0.00;0.62;2.90;2.33;;;20.50;15.30;;;;;;2264927;61;20365;-63
2022/03/12 08:14:37;0.00;0.00;0.62;0.00;0.00;0.62;3.83;2.97;;;20.50;15.30;;;;;;2266031;61;20420;-63
2022/03/12 08:17:22;0.00;0.00;0.62;0.00;0.00;0.62;3.03;2.47;;;20.50;15.30;;;;;;2266063;61;20369;-62
2022/03/12 08:20:09;0.00;0.00;0.62;0.00;0.00;0.62;3.37;2.43;;;20.50;15.30;;;;;;2265137;61;20645;-60
2022/03/12 08:22:54;0.00;0.00;0.62;0.00;0.00;0.62;3.67;3.10;;;20.50;15.20;;;;;;2266252;61;20744;-62
2022/03/12 08:25:38;0.00;0.00;0.62;0.00;0.00;0.62;3.60;2.93;;;20.50;15.10;;;;;;2265680;61;20419;-60
2022/03/12 08:28:23;0.00;0.00;0.62;0.00;0.00;0.62;3.77;3.43;;;20.50;15.10;;;;;;2266364;61;20748;-59
2022/03/12 08:31:10;0.00;0.00;0.62;0.00;0.00;0.62;4.20;3.60;;;20.50;14.90;;;;;;2266202;61;20695;-61
2022/03/12 08:33:54;0.00;0.00;0.62;0.00;0.00;0.62;4.07;3.47;;;20.50;14.90;;;;;;2265153;61;20365;-65
2022/03/12 08:36:39;0.00;0.00;0.62;0.00;0.00;0.62;4.70;3.40;;;20.40;14.90;;;;;;2266094;61;20454;-62
2022/03/12 08:39:23;0.00;0.00;0.62;0.00;0.00;0.62;3.80;3.20;;;20.40;14.90;;;;;;2265443;61;20523;-62
2022/03/12 08:42:08;0.00;0.00;0.62;0.00;0.00;0.62;5.57;3.93;;;20.40;14.90;;;;;;2264610;61;20603;-63
2022/03/12 08:44:53;0.00;0.00;0.62;0.00;0.00;0.62;4.70;3.60;;;20.40;14.80;;;;;;2265864;61;20377;-63
2022/03/12 08:47:41;0.00;0.00;0.62;0.00;0.00;0.62;4.07;3.47;;;20.40;14.50;;;;;;2266119;61;20401;-64
2022/03/12 08:50:26;0.00;0.00;0.62;0.00;0.00;0.62;3.70;3.00;;;20.40;14.50;;;;;;2265969;61;20579;-64
2022/03/12 08:53:10;0.00;0.00;0.62;0.00;0.00;0.62;6.40;3.67;;;20.30;14.40;;;;;;2265898;61;20403;-61
2022/03/12 08:55:55;0.00;0.00;0.62;0.00;0.00;0.62;4.67;3.93;;;20.30;14.10;;;;;;2265202;61;20760;-62
2022/03/12 08:58:41;0.00;0.00;0.62;0.00;0.00;0.62;5.70;3.37;;;20.30;13.90;;;;;;2265642;61;20427;-59
2022/03/12 09:01:26;0.00;0.00;0.62;0.00;0.00;0.62;4.47;3.67;;;20.30;13.80;;;;;;2265679;61;20373;-63
2022/03/12 09:04:13;0.00;0.00;0.62;0.00;0.00;0.62;3.90;3.50;;;20.20;13.70;;;;;;2264706;61;20380;-61
2022/03/12 09:06:59;0.00;0.00;0.62;0.00;0.00;0.62;4.37;3.50;;;20.20;13.60;;;;;;2264072;61;20366;-65
2022/03/12 09:09:44;0.00;0.00;0.62;0.00;0.00;0.62;3.67;3.03;;;20.20;13.50;;;;;;2261931;61;20430;-62
2022/03/12 09:12:29;0.00;0.00;0.62;0.00;0.00;0.62;4.07;3.20;;;20.20;13.60;;;;;;2261335;61;20365;-62
2022/03/12 09:15:18;0.00;0.00;0.62;0.00;0.00;0.62;4.70;3.67;;;20.20;13.80;;;;;;2261662;61;20389;-61
2022/03/12 09:18:03;0.00;0.00;0.62;0.00;0.00;0.62;3.27;2.97;;;20.20;14.00;;;;;;2260865;61;20362;-64
2022/03/12 09:20:49;0.00;0.00;0.62;0.00;0.00;0.62;3.13;2.33;;;20.20;14.20;;;;;;2261685;61;20397;-63
2022/03/12 09:23:34;0.00;0.00;0.62;0.00;0.00;0.62;6.73;3.03;;;20.20;14.40;;;;;;2261724;61;20492;-62
2022/03/12 09:26:21;0.00;0.00;0.62;0.00;0.00;0.62;4.67;3.40;;;20.30;14.60;;;;;;2260880;61;20668;-63
2022/03/12 09:29:05;0.00;0.00;0.62;0.00;0.00;0.62;4.03;3.30;;;20.30;14.70;;;;;;2261885;61;20401;-64
2022/03/12 09:31:50;0.00;0.00;0.62;0.00;0.00;0.62;4.10;2.90;;;20.30;14.80;;;;;;2261705;61;20706;-64
2022/03/12 09:34:37;0.00;0.00;0.62;0.00;0.00;0.62;3.80;3.07;;;20.40;15.00;;;;;;2260939;61;20390;-63
2022/03/12 09:37:23;0.00;0.00;0.62;0.00;0.00;0.62;4.27;2.80;;;20.40;15.10;;;;;;2261841;61;20744;-61
2022/03/12 09:40:10;0.00;0.00;0.62;0.00;0.00;0.62;3.83;2.53;;;20.50;15.30;;;;;;2261062;61;21060;-61
2022/03/12 09:42:55;0.00;0.00;0.62;0.00;0.00;0.62;3.33;2.80;;;20.50;15.30;;;;;;2261556;61;20365;-62
2022/03/12 09:45:40;0.00;0.00;0.62;0.00;0.00;0.62;3.87;3.20;;;20.50;15.40;;;;;;2261827;61;20382;-64
2022/03/12 09:48:24;0.00;0.00;0.62;0.00;0.00;0.62;3.07;2.40;;;20.60;15.50;;;;;;2260776;61;20749;-65
2022/03/12 09:51:10;0.00;0.00;0.62;0.00;0.00;0.62;4.53;2.97;;;20.60;15.50;;;;;;2261777;61;20362;-61
2022/03/12 09:53:56;0.00;0.00;0.62;0.00;0.00;0.62;3.67;2.60;;;20.70;15.70;;;;;;2261779;61;20366;-63
2022/03/12 09:56:40;0.00;0.00;0.62;0.00;0.00;0.62;3.73;2.50;;;20.70;15.70;;;;;;2260759;61;20493;-64
2022/03/12 09:59:25;0.00;0.00;0.62;0.00;0.00;0.62;2.77;2.20;;;20.70;15.80;;;;;;2261653;61;20481;-62
2022/03/12 10:02:10;0.00;0.00;0.62;0.00;0.00;0.62;4.30;2.37;;;20.80;15.90;;;;;;2261079;61;20630;-60
2022/03/12 10:04:54;0.00;0.00;0.62;0.00;0.00;0.62;3.47;2.60;;;20.80;15.90;;;;;;2261107;61;20425;-60
2022/03/12 10:07:42;0.00;0.00;0.62;0.00;0.00;0.62;2.57;2.30;;;20.80;15.90;;;;;;2261835;61;20397;-61
2022/03/12 10:10:28;0.00;0.00;0.62;0.00;0.00;0.62;2.83;2.17;;;20.90;16.10;;;;;;2260799;61;20587;-59
2022/03/12 10:13:13;0.00;0.00;0.62;0.00;0.00;0.62;2.40;1.93;;;20.90;16.10;;;;;;2261684;61;20370;-62
2022/03/12 10:15:59;0.00;0.00;0.62;0.00;0.00;0.62;2.93;2.40;;;20.90;16.10;;;;;;2261803;61;20390;-63
2022/03/12 10:18:43;0.00;0.00;0.62;0.00;0.00;0.62;3.83;2.30;;;21.00;16.20;;;;;;2260307;61;20428;-63
2022/03/12 10:21:30;0.00;0.00;0.62;0.00;0.00;0.62;2.63;2.00;;;21.00;16.30;;;;;;2261809;61;20361;-62
2022/03/12 10:24:15;0.00;0.00;0.62;0.00;0.00;0.62;3.37;2.53;;;21.10;16.30;;;;;;2260864;61;20441;-65
2022/03/12 10:27:00;0.00;0.00;0.62;0.00;0.00;0.62;2.67;1.97;;;21.10;16.40;;;;;;2261429;61;20389;-62
2022/03/12 10:29:45;0.00;0.00;0.62;0.00;0.00;0.62;3.20;2.90;;;21.10;16.90;;;;;;2261810;61;20358;-65
2022/03/12 10:32:34;0.00;0.00;0.62;0.00;0.00;0.62;3.33;2.00;;;21.20;16.50;;;;;;2260899;61;20389;-63
2022/03/12 10:35:21;0.00;0.00;0.62;0.00;0.00;0.62;2.43;1.93;;;21.20;16.50;;;;;;2261607;61;20386;-64
2022/03/12 10:38:10;0.00;0.00;0.62;0.00;0.00;0.62;2.90;1.97;;;21.30;16.60;;;;;;2261706;61;20381;-64
2022/03/12 10:40:57;0.00;0.00;0.62;0.00;0.00;0.62;2.93;2.17;;;21.30;16.60;;;;;;2260718;61;20453;-64
2022/03/12 10:43:46;0.00;0.00;0.62;0.00;0.00;0.62;2.43;2.00;;;21.40;16.70;;;;;;2261650;61;20579;-63
2022/03/12 10:46:35;0.00;0.00;0.62;0.00;0.00;0.62;2.50;2.07;;;21.40;16.70;;;;;;2260838;61;20433;-61
2022/03/12 10:49:23;0.00;0.00;0.62;0.00;0.00;0.62;2.80;2.00;;;21.40;16.70;;;;;;2260987;61;20393;-62
2022/03/12 10:52:10;0.00;0.00;0.62;0.00;0.00;0.62;2.90;1.83;;;21.50;16.80;;;;;;2261774;61;20405;-61
2022/03/12 10:54:56;0.00;0.00;0.62;0.00;0.00;0.62;2.20;1.90;;;21.60;16.90;;;;;;2260308;61;20409;-64